Time;durP1;ratioP1;P1;durP2;ratioP2;P2;SDS_P1;SDS_P2;PMS_P1;PMS_P2;Temp;Humidity;BMP_temperature;BMP_pressure;BME280_temperature;BME280_humidity;BME280_pressure;Samples;Min_cycle;Max_cycle;Signal;HPM_P1;HPM_P2
2021/07/12 00:00:40;;;;;;;12.20;6.70;;;;;;;;;;143742;693;46020;-56
2021/07/12 00:03:07;;;;;;;8.98;6.15;;;;;;;;;;143742;566;46011;-56
2021/07/12 00:05:34;;;;;;;9.23;6.90;;;;;;;;;;143741;643;46018;-56
2021/07/12 00:08:01;;;;;;;11.98;7.07;;;;;;;;;;143746;678;46010;-56
2021/07/12 00:10:29;;;;;;;10.93;7.20;;;;;;;;;;143740;618;47020;-56
2021/07/12 00:12:57;;;;;;;9.45;6.68;;;;;;;;;;143742;703;46010;-56
2021/07/12 00:15:26;;;;;;;10.07;6.25;;;;;;;;;;143744;603;46010;-56
2021/07/12 00:17:53;;;;;;;14.02;6.97;;;;;;;;;;143745;578;46012;-56
2021/07/12 00:20:20;;;;;;;12.10;6.90;;;;;;;;;;143743;625;46031;-56
2021/07/12 00:22:49;;;;;;;10.10;7.20;;;;;;;;;;143742;607;46022;-55
2021/07/12 00:25:16;;;;;;;17.40;7.60;;;;;;;;;;143742;590;46018;-56
2021/07/12 00:27:43;;;;;;;12.25;8.25;;;;;;;;;;143746;572;46012;-56
2021/07/12 00:30:14;;;;;;;10.63;7.32;;;;;;;;;;143745;621;46018;-57
2021/07/12 00:32:41;;;;;;;11.40;7.37;;;;;;;;;;143741;593;47010;-56
2021/07/12 00:35:10;;;;;;;14.10;8.43;;;;;;;;;;143743;564;46016;-58
2021/07/12 00:37:37;;;;;;;11.52;7.95;;;;;;;;;;143745;588;46012;-56
2021/07/12 00:40:07;;;;;;;10.57;7.40;;;;;;;;;;143746;583;46019;-56
2021/07/12 00:42:34;;;;;;;10.63;7.25;;;;;;;;;;143742;853;46023;-57
2021/07/12 00:45:02;;;;;;;11.60;7.35;;;;;;;;;;143742;587;46018;-56
2021/07/12 00:47:29;;;;;;;10.40;6.75;;;;;;;;;;143746;571;46013;-57
2021/07/12 00:49:56;;;;;;;11.12;7.62;;;;;;;;;;143744;624;46018;-56
2021/07/12 00:52:23;;;;;;;10.68;7.22;;;;;;;;;;143741;654;46022;-56
2021/07/12 00:54:50;;;;;;;11.00;6.55;;;;;;;;;;143743;585;46017;-56
2021/07/12 00:57:17;;;;;;;10.88;6.90;;;;;;;;;;143745;569;46012;-56
2021/07/12 00:59:44;;;;;;;11.25;6.75;;;;;;;;;;143744;573;46018;-56
2021/07/12 01:02:11;;;;;;;9.50;6.85;;;;;;;;;;143742;580;46011;-56
2021/07/12 01:04:38;;;;;;;10.10;6.82;;;;;;;;;;143744;572;46010;-57
2021/07/12 01:07:10;;;;;;;15.60;7.35;;;;;;;;;;143743;569;46012;-56
2021/07/12 01:09:38;;;;;;;8.63;6.78;;;;;;;;;;143743;586;46019;-56
2021/07/12 01:12:18;;;;;;;10.40;6.75;;;;;;;;;;143742;600;46022;-56
2021/07/12 01:15:07;;;;;;;14.23;6.62;;;;;;;;;;143741;572;46018;-56
2021/07/12 01:18:18;;;;;;;12.65;8.07;;;;;;;;;;143746;564;46012;-56
2021/07/12 01:21:37;;;;;;;10.30;7.87;;;;;;;;;;143744;592;46018;-57
2021/07/12 01:24:58;;;;;;;11.90;7.15;;;;;;;;;;143742;607;46022;-56
2021/07/12 01:28:02;;;;;;;13.15;8.20;;;;;;;;;;143740;578;46018;-57
2021/07/12 01:31:10;;;;;;;10.35;7.40;;;;;;;;;;143747;616;46012;-56
2021/07/12 01:33:52;;;;;;;15.88;8.60;;;;;;;;;;143746;834;46018;-57
2021/07/12 01:36:27;;;;;;;13.40;8.52;;;;;;;;;;143741;606;47010;-58
2021/07/12 01:39:08;;;;;;;13.35;8.60;;;;;;;;;;143743;566;46018;-57
2021/07/12 01:42:08;;;;;;;15.15;9.25;;;;;;;;;;143744;570;46012;-57
2021/07/12 01:45:08;;;;;;;17.40;9.02;;;;;;;;;;143743;628;46018;-56
2021/07/12 01:48:12;;;;;;;20.92;9.95;;;;;;;;;;143742;647;46011;-57
2021/07/12 01:50:51;;;;;;;18.95;9.57;;;;;;;;;;143743;571;46016;-56
2021/07/12 01:53:54;;;;;;;17.42;9.40;;;;;;;;;;143746;611;46022;-56
2021/07/12 01:56:35;;;;;;;14.57;9.15;;;;;;;;;;143742;581;46021;-57
2021/07/12 01:59:47;;;;;;;15.05;8.65;;;;;;;;;;143742;569;46022;-57
2021/07/12 02:02:15;;;;;;;15.43;9.27;;;;;;;;;;143741;591;46025;-57
2021/07/12 02:04:43;;;;;;;18.42;10.50;;;;;;;;;;143743;603;46012;-57
2021/07/12 02:07:18;;;;;;;13.68;9.25;;;;;;;;;;143740;594;47018;-58
2021/07/12 02:09:48;;;;;;;15.60;9.38;;;;;;;;;;143740;621;46023;-57
2021/07/12 02:12:17;;;;;;;22.23;10.32;;;;;;;;;;143741;586;46016;-57
2021/07/12 02:14:45;;;;;;;15.50;9.68;;;;;;;;;;143742;613;46022;-57
2021/07/12 02:17:13;;;;;;;19.65;10.32;;;;;;;;;;143742;565;46019;-57
2021/07/12 02:19:42;;;;;;;18.00;9.43;;;;;;;;;;143741;598;46010;-57
2021/07/12 02:22:10;;;;;;;14.68;8.70;;;;;;;;;;143739;611;46018;-57
2021/07/12 02:24:39;;;;;;;17.00;9.20;;;;;;;;;;143743;616;46012;-57
2021/07/12 02:27:06;;;;;;;22.52;10.32;;;;;;;;;;143740;569;46021;-58
2021/07/12 02:29:34;;;;;;;17.50;9.85;;;;;;;;;;143740;574;46010;-57
2021/07/12 02:32:01;;;;;;;17.98;9.68;;;;;;;;;;143740;564;46019;-57
2021/07/12 02:34:30;;;;;;;18.15;9.98;;;;;;;;;;143744;569;46012;-57
2021/07/12 02:36:58;;;;;;;16.08;10.50;;;;;;;;;;143741;569;46020;-57
2021/07/12 02:39:25;;;;;;;17.58;9.82;;;;;;;;;;143741;588;46011;-57
2021/07/12 02:41:54;;;;;;;17.17;9.15;;;;;;;;;;143740;572;46018;-57
2021/07/12 02:44:21;;;;;;;15.18;10.10;;;;;;;;;;143744;566;46012;-57
2021/07/12 02:46:49;;;;;;;15.63;8.60;;;;;;;;;;143740;576;46020;-57
2021/07/12 02:49:16;;;;;;;13.95;9.20;;;;;;;;;;143739;565;46023;-57
2021/07/12 02:51:47;;;;;;;15.93;8.90;;;;;;;;;;143740;579;46018;-57
2021/07/12 02:54:21;;;;;;;17.10;10.15;;;;;;;;;;143742;564;46023;-57
2021/07/12 02:56:48;;;;;;;44.53;13.43;;;;;;;;;;143741;580;46018;-58
2021/07/12 02:59:15;;;;;;;45.35;13.40;;;;;;;;;;143740;577;46010;-57
2021/07/12 03:01:42;;;;;;;108.85;23.15;;;;;;;;;;143742;589;46010;-58
2021/07/12 03:04:09;;;;;;;46.80;13.05;;;;;;;;;;143741;588;46012;-57
2021/07/12 03:06:36;;;;;;;29.73;11.05;;;;;;;;;;143743;617;46018;-57
2021/07/12 03:09:08;;;;;;;30.35;10.82;;;;;;;;;;143735;613;46011;-57
2021/07/12 03:11:47;;;;;;;70.82;16.25;;;;;;;;;;143742;609;46010;-57
2021/07/12 03:14:28;;;;;;;53.72;12.55;;;;;;;;;;143743;595;46022;-58
2021/07/12 03:16:56;;;;;;;28.77;10.40;;;;;;;;;;143741;616;46019;-57
2021/07/12 03:19:27;;;;;;;22.65;10.10;;;;;;;;;;143739;569;46920;-58
2021/07/12 03:21:55;;;;;;;15.50;10.07;;;;;;;;;;143739;577;46018;-58
2021/07/12 03:24:22;;;;;;;20.08;9.60;;;;;;;;;;143742;575;46012;-58
2021/07/12 03:26:53;;;;;;;19.37;9.63;;;;;;;;;;143741;603;46021;-57
2021/07/12 03:29:22;;;;;;;14.40;9.40;;;;;;;;;;143740;636;46022;-59
2021/07/12 03:31:51;;;;;;;19.05;9.18;;;;;;;;;;143739;598;46019;-58
2021/07/12 03:34:19;;;;;;;17.65;8.48;;;;;;;;;;143743;622;46012;-58
2021/07/12 03:36:48;;;;;;;19.10;9.20;;;;;;;;;;143741;579;46018;-57
2021/07/12 03:39:16;;;;;;;17.52;8.82;;;;;;;;;;143741;576;46023;-58
2021/07/12 03:41:43;;;;;;;12.93;8.75;;;;;;;;;;143740;581;46016;-57
2021/07/12 03:44:10;;;;;;;16.17;8.35;;;;;;;;;;143744;601;46010;-59
2021/07/12 03:46:43;;;;;;;17.70;9.20;;;;;;;;;;143740;571;47019;-57
2021/07/12 03:49:14;;;;;;;15.73;9.38;;;;;;;;;;143740;639;46022;-58
2021/07/12 03:51:42;;;;;;;17.85;8.82;;;;;;;;;;143740;585;46018;-58
2021/07/12 03:54:09;;;;;;;18.87;10.20;;;;;;;;;;143741;570;46012;-58
2021/07/12 03:56:36;;;;;;;17.23;9.07;;;;;;;;;;143741;592;46018;-58
2021/07/12 03:59:03;;;;;;;21.27;8.88;;;;;;;;;;143740;597;47020;-58
2021/07/12 04:01:30;;;;;;;16.83;9.27;;;;;;;;;;143741;628;46017;-58
2021/07/12 04:03:57;;;;;;;19.83;10.30;;;;;;;;;;143744;617;46012;-58
2021/07/12 04:06:24;;;;;;;16.33;9.30;;;;;;;;;;143740;585;46020;-59
2021/07/12 04:08:51;;;;;;;25.92;12.75;;;;;;;;;;143741;621;46011;-58
2021/07/12 04:11:18;;;;;;;24.77;10.98;;;;;;;;;;143741;668;46018;-59
2021/07/12 04:13:47;;;;;;;15.50;9.32;;;;;;;;;;143742;603;46038;-58
2021/07/12 04:16:14;;;;;;;24.75;11.48;;;;;;;;;;143744;587;46019;-58
2021/07/12 04:18:41;;;;;;;20.23;10.48;;;;;;;;;;143740;571;46022;-58
2021/07/12 04:21:08;;;;;;;19.25;10.57;;;;;;;;;;143738;575;46915;-58
2021/07/12 04:23:36;;;;;;;30.37;14.70;;;;;;;;;;143743;584;46014;-58
2021/07/12 04:26:03;;;;;;;24.95;14.00;;;;;;;;;;143741;618;46021;-58
2021/07/12 04:28:30;;;;;;;28.73;12.88;;;;;;;;;;143740;581;46012;-58
2021/07/12 04:30:57;;;;;;;24.92;11.82;;;;;;;;;;143740;586;46018;-58
2021/07/12 04:33:25;;;;;;;26.30;12.88;;;;;;;;;;143742;629;46014;-58
2021/07/12 04:35:52;;;;;;;32.40;13.73;;;;;;;;;;143740;590;46020;-58
2021/07/12 04:38:20;;;;;;;31.02;13.18;;;;;;;;;;143741;576;46022;-58
2021/07/12 04:40:47;;;;;;;33.75;15.63;;;;;;;;;;143740;617;46018;-58
2021/07/12 04:43:14;;;;;;;36.80;18.70;;;;;;;;;;143742;607;46014;-59
2021/07/12 04:45:41;;;;;;;38.15;20.40;;;;;;;;;;143742;606;46019;-58
2021/07/12 04:48:08;;;;;;;41.22;22.90;;;;;;;;;;143740;583;46013;-58
2021/07/12 04:50:35;;;;;;;31.17;17.62;;;;;;;;;;143740;569;46915;-58
2021/07/12 04:53:02;;;;;;;35.25;17.50;;;;;;;;;;143743;610;46014;-57
2021/07/12 04:55:29;;;;;;;28.27;15.52;;;;;;;;;;143743;615;46018;-57
2021/07/12 04:57:57;;;;;;;31.52;16.90;;;;;;;;;;143740;592;46022;-57
2021/07/12 05:00:24;;;;;;;33.40;17.62;;;;;;;;;;143742;601;46017;-58
2021/07/12 05:02:51;;;;;;;31.12;15.30;;;;;;;;;;143745;575;46014;-58
2021/07/12 05:05:18;;;;;;;37.92;16.83;;;;;;;;;;143739;729;46020;-58
2021/07/12 05:07:45;;;;;;;80.20;20.85;;;;;;;;;;143740;588;46023;-59
2021/07/12 05:10:13;;;;;;;59.28;20.42;;;;;;;;;;143736;572;46018;-59
2021/07/12 05:12:40;;;;;;;59.05;18.62;;;;;;;;;;143746;578;46014;-59
2021/07/12 05:15:08;;;;;;;55.83;18.50;;;;;;;;;;143739;592;47019;-58
2021/07/12 05:17:37;;;;;;;59.83;17.30;;;;;;;;;;143740;675;46023;-58
2021/07/12 05:20:08;;;;;;;34.92;14.75;;;;;;;;;;143741;616;46016;-58
2021/07/12 05:22:35;;;;;;;52.97;15.73;;;;;;;;;;143741;564;46015;-58
2021/07/12 05:25:04;;;;;;;51.95;17.40;;;;;;;;;;143742;605;46018;-58
2021/07/12 05:27:31;;;;;;;69.95;17.58;;;;;;;;;;143740;645;46012;-58
2021/07/12 05:29:58;;;;;;;42.88;14.43;;;;;;;;;;143740;588;46019;-58
2021/07/12 05:32:25;;;;;;;29.15;15.00;;;;;;;;;;143743;567;46014;-58
2021/07/12 05:34:52;;;;;;;53.63;14.32;;;;;;;;;;143742;607;46018;-57
2021/07/12 05:37:19;;;;;;;36.28;13.10;;;;;;;;;;143740;678;46022;-57
2021/07/12 05:39:46;;;;;;;30.30;13.15;;;;;;;;;;143741;570;46016;-58
2021/07/12 05:42:13;;;;;;;39.10;13.30;;;;;;;;;;143743;605;46014;-59
2021/07/12 05:44:40;;;;;;;31.42;12.98;;;;;;;;;;143740;596;46020;-59
2021/07/12 05:47:07;;;;;;;31.90;13.48;;;;;;;;;;143737;722;47012;-59
2021/07/12 05:49:34;;;;;;;24.60;11.65;;;;;;;;;;143740;571;46016;-58
2021/07/12 05:52:01;;;;;;;22.92;10.80;;;;;;;;;;143743;630;46015;-58
2021/07/12 05:54:28;;;;;;;27.58;10.68;;;;;;;;;;143740;581;46018;-59
2021/07/12 05:56:55;;;;;;;22.70;9.82;;;;;;;;;;143740;573;46012;-58
2021/07/12 05:59:22;;;;;;;24.20;9.15;;;;;;;;;;143741;571;46018;-58
2021/07/12 06:01:50;;;;;;;18.65;10.20;;;;;;;;;;143745;615;46023;-58
2021/07/12 06:04:17;;;;;;;26.25;10.95;;;;;;;;;;143742;570;46018;-58
2021/07/12 06:06:44;;;;;;;16.20;9.70;;;;;;;;;;143740;632;46022;-58
2021/07/12 06:09:11;;;;;;;23.95;10.50;;;;;;;;;;143741;611;46016;-57
2021/07/12 06:11:38;;;;;;;19.85;9.73;;;;;;;;;;143743;613;46022;-56
2021/07/12 06:14:05;;;;;;;18.08;9.80;;;;;;;;;;143738;633;47020;-57
2021/07/12 06:16:32;;;;;;;28.70;10.32;;;;;;;;;;143739;599;47023;-57
2021/07/12 06:18:59;;;;;;;27.13;11.55;;;;;;;;;;143742;578;46018;-57
2021/07/12 06:21:26;;;;;;;26.05;10.20;;;;;;;;;;143744;629;46015;-57
2021/07/12 06:23:53;;;;;;;22.37;9.65;;;;;;;;;;143742;646;46018;-57
2021/07/12 06:26:20;;;;;;;20.55;10.95;;;;;;;;;;143738;618;46022;-57
2021/07/12 06:28:47;;;;;;;28.12;10.30;;;;;;;;;;143741;650;46017;-58
2021/07/12 06:31:14;;;;;;;23.05;10.02;;;;;;;;;;143743;574;46023;-57
2021/07/12 06:33:41;;;;;;;27.42;10.95;;;;;;;;;;143739;579;47018;-57
2021/07/12 06:36:08;;;;;;;28.12;10.93;;;;;;;;;;143741;572;46022;-58
2021/07/12 06:38:36;;;;;;;21.08;11.20;;;;;;;;;;143741;575;46020;-59
2021/07/12 06:41:03;;;;;;;27.33;11.40;;;;;;;;;;143743;614;46014;-57
2021/07/12 06:43:30;;;;;;;31.48;11.52;;;;;;;;;;143740;705;46020;-57
2021/07/12 06:45:59;;;;;;;23.08;10.43;;;;;;;;;;143741;626;46012;-58
2021/07/12 06:48:26;;;;;;;26.15;10.63;;;;;;;;;;143742;619;46016;-57
2021/07/12 06:50:54;;;;;;;17.15;10.05;;;;;;;;;;143745;605;46022;-58
2021/07/12 06:53:21;;;;;;;16.67;8.90;;;;;;;;;;143740;595;46021;-56
2021/07/12 06:55:48;;;;;;;23.48;10.30;;;;;;;;;;143740;564;46022;-56
2021/07/12 06:58:15;;;;;;;22.40;10.50;;;;;;;;;;143742;640;46016;-57
2021/07/12 07:00:42;;;;;;;20.48;10.23;;;;;;;;;;143742;592;46014;-57
2021/07/12 07:03:09;;;;;;;20.17;11.45;;;;;;;;;;143743;676;46018;-57
2021/07/12 07:05:37;;;;;;;26.48;12.07;;;;;;;;;;143739;564;46038;-57
2021/07/12 07:08:04;;;;;;;19.10;9.23;;;;;;;;;;143742;616;46018;-57
2021/07/12 07:10:32;;;;;;;22.90;10.43;;;;;;;;;;143745;608;46014;-57
2021/07/12 07:12:59;;;;;;;18.42;9.35;;;;;;;;;;143739;566;46022;-57
2021/07/12 07:15:26;;;;;;;14.55;9.63;;;;;;;;;;143740;643;46013;-57
2021/07/12 07:17:54;;;;;;;19.77;9.15;;;;;;;;;;143742;640;46018;-57
2021/07/12 07:20:21;;;;;;;19.08;10.88;;;;;;;;;;143743;654;46014;-58
2021/07/12 07:22:48;;;;;;;21.95;10.50;;;;;;;;;;143744;637;46020;-57
2021/07/12 07:25:16;;;;;;;17.70;9.73;;;;;;;;;;143741;684;46012;-57
2021/07/12 07:27:43;;;;;;;17.75;9.48;;;;;;;;;;143739;587;46020;-56
2021/07/12 07:30:11;;;;;;;18.37;9.75;;;;;;;;;;143741;564;46018;-56
2021/07/12 07:32:39;;;;;;;19.83;10.10;;;;;;;;;;143743;578;46020;-57
2021/07/12 07:35:08;;;;;;;19.98;9.68;;;;;;;;;;143740;575;46020;-56
2021/07/12 07:37:35;;;;;;;20.48;10.63;;;;;;;;;;143742;577;46018;-56
2021/07/12 07:40:05;;;;;;;22.73;10.25;;;;;;;;;;143743;564;46020;-56
2021/07/12 07:42:32;;;;;;;19.83;10.07;;;;;;;;;;143743;588;46020;-56
2021/07/12 07:45:00;;;;;;;21.48;9.15;;;;;;;;;;143740;588;46021;-57
2021/07/12 07:47:28;;;;;;;13.90;9.77;;;;;;;;;;143740;605;46020;-56
2021/07/12 07:49:55;;;;;;;18.12;10.70;;;;;;;;;;143744;566;46020;-57
2021/07/12 07:52:22;;;;;;;17.20;8.80;;;;;;;;;;143742;590;46021;-56
2021/07/12 07:54:50;;;;;;;13.38;9.10;;;;;;;;;;143740;640;46020;-56
2021/07/12 07:57:17;;;;;;;13.25;9.38;;;;;;;;;;143742;621;46018;-57
2021/07/12 07:59:45;;;;;;;12.55;8.73;;;;;;;;;;143744;607;46014;-57
2021/07/12 08:02:12;;;;;;;12.60;8.32;;;;;;;;;;143740;589;46022;-56
2021/07/12 08:04:39;;;;;;;10.50;8.07;;;;;;;;;;143740;601;46020;-57
2021/07/12 08:07:07;;;;;;;13.45;7.47;;;;;;;;;;143740;658;46021;-57
2021/07/12 08:09:34;;;;;;;16.10;9.23;;;;;;;;;;143742;654;46020;-58
2021/07/12 08:12:01;;;;;;;11.80;7.70;;;;;;;;;;143738;596;49020;-56
2021/07/12 08:14:28;;;;;;;17.50;7.50;;;;;;;;;;143741;590;46010;-57
2021/07/12 08:16:55;;;;;;;11.65;7.00;;;;;;;;;;143742;564;46018;-56
2021/07/12 08:19:22;;;;;;;12.10;7.18;;;;;;;;;;143744;581;46010;-57
2021/07/12 08:21:49;;;;;;;12.13;7.10;;;;;;;;;;143741;665;46021;-57
2021/07/12 08:24:16;;;;;;;16.55;7.95;;;;;;;;;;143739;605;46919;-56
2021/07/12 08:26:43;;;;;;;11.45;7.00;;;;;;;;;;143743;577;46018;-57
2021/07/12 08:29:10;;;;;;;12.88;7.32;;;;;;;;;;143743;594;46012;-57
2021/07/12 08:31:36;;;;;;;13.13;7.75;;;;;;;;;;143742;589;46020;-57
2021/07/12 08:34:03;;;;;;;10.75;6.93;;;;;;;;;;143742;582;46010;-57
2021/07/12 08:36:30;;;;;;;9.82;7.30;;;;;;;;;;143743;573;46018;-58
2021/07/12 08:38:57;;;;;;;10.18;7.05;;;;;;;;;;143744;611;46020;-57
2021/07/12 08:41:24;;;;;;;12.18;7.60;;;;;;;;;;143743;608;46020;-57
2021/07/12 08:43:52;;;;;;;13.57;7.82;;;;;;;;;;143741;569;46021;-58
2021/07/12 08:46:19;;;;;;;9.98;7.65;;;;;;;;;;143739;581;47012;-58
2021/07/12 08:48:46;;;;;;;10.82;6.87;;;;;;;;;;143743;588;46012;-57
2021/07/12 08:51:15;;;;;;;10.25;7.37;;;;;;;;;;143740;633;46035;-60
2021/07/12 08:53:42;;;;;;;14.38;7.12;;;;;;;;;;143740;577;46010;-62
2021/07/12 08:56:08;;;;;;;13.55;7.03;;;;;;;;;;143742;606;46016;-61
2021/07/12 08:58:35;;;;;;;10.82;6.60;;;;;;;;;;143742;574;46011;-61
2021/07/12 09:01:08;;;;;;;11.25;6.97;;;;;;;;;;143742;566;46018;-62
2021/07/12 09:03:41;;;;;;;;;;;;;;;;;;143745;978;46010;-61
2021/07/12 09:06:13;;;;;;;9.80;6.55;;;;;;;;;;143746;605;46019;-61
2021/07/12 09:09:04;;;;;;;12.60;7.37;;;;;;;;;;143744;564;46022;-60
2021/07/12 09:11:40;;;;;;;16.58;6.95;;;;;;;;;;143744;572;46018;-61
2021/07/12 09:14:13;;;;;;;12.00;7.35;;;;;;;;;;143741;583;46010;-59
2021/07/12 09:16:51;;;;;;;11.18;7.30;;;;;;;;;;143739;621;46018;-61
2021/07/12 09:19:38;;;;;;;15.05;6.87;;;;;;;;;;143747;599;45022;-61
2021/07/12 09:22:10;;;;;;;10.00;6.70;;;;;;;;;;143743;575;46019;-61
2021/07/12 09:24:56;;;;;;;16.42;6.60;;;;;;;;;;143741;583;47010;-60
2021/07/12 09:27:26;;;;;;;14.10;6.50;;;;;;;;;;143738;672;46018;-60
2021/07/12 09:29:56;;;;;;;10.95;9.32;;;;;;;;;;143741;631;46020;-60
2021/07/12 09:32:24;;;;;;;17.12;8.57;;;;;;;;;;143742;571;46018;-59
2021/07/12 09:35:27;;;;;;;16.17;8.48;;;;;;;;;;143741;576;46022;-60
2021/07/12 09:37:59;;;;;;;17.73;7.80;;;;;;;;;;143743;641;46016;-61
2021/07/12 09:40:29;;;;;;;10.88;6.40;;;;;;;;;;143743;575;46012;-60
2021/07/12 09:42:55;;;;;;;9.68;6.68;;;;;;;;;;143743;569;46019;-60
2021/07/12 09:45:28;;;;;;;13.90;6.85;;;;;;;;;;143738;652;46023;-60
2021/07/12 09:47:55;;;;;;;11.10;6.12;;;;;;;;;;143742;633;46016;-60
2021/07/12 09:50:25;;;;;;;14.80;7.15;;;;;;;;;;143742;626;46022;-59
2021/07/12 09:53:00;;;;;;;9.57;6.47;;;;;;;;;;143741;612;46021;-60
2021/07/12 09:55:32;;;;;;;10.05;6.53;;;;;;;;;;143742;580;46022;-59
2021/07/12 09:58:18;;;;;;;12.43;6.00;;;;;;;;;;143740;607;46019;-60
2021/07/12 10:01:11;;;;;;;15.10;6.62;;;;;;;;;;143744;570;46022;-60
2021/07/12 10:03:39;;;;;;;14.30;6.93;;;;;;;;;;143745;564;46018;-61
2021/07/12 10:06:06;;;;;;;8.52;5.93;;;;;;;;;;143741;594;46023;-58
2021/07/12 10:08:33;;;;;;;12.13;6.50;;;;;;;;;;143744;571;46016;-60
2021/07/12 10:11:00;;;;;;;7.95;6.60;;;;;;;;;;143745;571;46022;-60
2021/07/12 10:13:27;;;;;;;12.60;7.05;;;;;;;;;;143741;633;47018;-60
2021/07/12 10:15:55;;;;;;;11.52;6.22;;;;;;;;;;143742;573;46022;-60
2021/07/12 10:18:22;;;;;;;9.25;6.60;;;;;;;;;;143744;605;46016;-60
2021/07/12 10:20:51;;;;;;;12.88;6.75;;;;;;;;;;143745;612;46013;-59
2021/07/12 10:23:20;;;;;;;15.48;7.05;;;;;;;;;;143742;575;46020;-59
2021/07/12 10:25:48;;;;;;;16.55;7.68;;;;;;;;;;143742;596;46022;-60
2021/07/12 10:28:16;;;;;;;9.88;6.90;;;;;;;;;;143742;572;46019;-59
2021/07/12 10:30:48;;;;;;;12.80;6.87;;;;;;;;;;143748;570;46012;-59
2021/07/12 10:33:29;;;;;;;13.68;7.28;;;;;;;;;;143744;668;46018;-60
2021/07/12 10:35:57;;;;;;;13.95;7.72;;;;;;;;;;143743;564;46023;-59
2021/07/12 10:38:38;;;;;;;13.65;7.10;;;;;;;;;;143743;619;46016;-61
2021/07/12 10:41:22;;;;;;;10.18;6.40;;;;;;;;;;143745;585;46022;-59
2021/07/12 10:43:57;;;;;;;16.10;6.82;;;;;;;;;;143744;609;46018;-60
2021/07/12 10:46:42;;;;;;;10.88;7.22;;;;;;;;;;143742;604;46010;-61
2021/07/12 10:49:38;;;;;;;13.02;6.70;;;;;;;;;;143744;610;46017;-60
2021/07/12 10:52:05;;;;;;;12.02;6.95;;;;;;;;;;143743;612;46025;-60
2021/07/12 10:54:58;;;;;;;13.25;6.78;;;;;;;;;;143740;594;48020;-59
2021/07/12 10:57:25;;;;;;;14.02;6.65;;;;;;;;;;143742;595;46023;-61
2021/07/12 11:00:08;;;;;;;15.02;8.45;;;;;;;;;;143743;609;46016;-60
2021/07/12 11:02:35;;;;;;;13.75;7.72;;;;;;;;;;143744;565;46022;-61
2021/07/12 11:05:14;;;;;;;11.25;6.55;;;;;;;;;;143744;588;46019;-61
2021/07/12 11:07:48;;;;;;;27.00;8.10;;;;;;;;;;143743;620;46010;-60
2021/07/12 11:10:31;;;;;;;13.62;7.35;;;;;;;;;;143744;641;46016;-60
2021/07/12 11:13:00;;;;;;;15.98;6.35;;;;;;;;;;143742;579;46020;-61
2021/07/12 11:15:29;;;;;;;17.92;7.05;;;;;;;;;;143743;615;46020;-59
2021/07/12 11:18:07;;;;;;;13.32;6.85;;;;;;;;;;143740;661;47010;-60
2021/07/12 11:21:01;;;;;;;11.50;6.62;;;;;;;;;;143744;604;46016;-58
2021/07/12 11:24:12;;;;;;;13.38;7.60;;;;;;;;;;143748;564;46022;-60
2021/07/12 11:26:42;;;;;;;13.40;7.45;;;;;;;;;;143743;602;46020;-59
2021/07/12 11:29:21;;;;;;;12.25;6.40;;;;;;;;;;143742;595;46023;-60
2021/07/12 11:32:22;;;;;;;11.23;6.78;;;;;;;;;;143743;611;46016;-60
2021/07/12 11:34:52;;;;;;;16.33;7.70;;;;;;;;;;143746;598;46022;-60
2021/07/12 11:37:22;;;;;;;12.32;6.50;;;;;;;;;;143742;601;46021;-60
2021/07/12 11:39:54;;;;;;;10.40;7.20;;;;;;;;;;143742;589;46010;-59
2021/07/12 11:42:30;;;;;;;15.52;7.30;;;;;;;;;;143744;637;46016;-58
2021/07/12 11:44:59;;;;;;;15.00;6.97;;;;;;;;;;143746;582;46012;-60
2021/07/12 11:47:38;;;;;;;13.62;7.90;;;;;;;;;;143743;567;46018;-61
2021/07/12 11:50:16;;;;;;;12.45;7.90;;;;;;;;;;143744;591;45919;-60
2021/07/12 11:52:49;;;;;;;17.58;8.02;;;;;;;;;;143743;586;46016;-59
2021/07/12 11:55:27;;;;;;;12.23;7.10;;;;;;;;;;143745;566;46012;-59
2021/07/12 11:57:57;;;;;;;15.77;7.40;;;;;;;;;;143743;583;46018;-59
2021/07/12 12:00:27;;;;;;;16.05;8.25;;;;;;;;;;143742;580;46022;-59
2021/07/12 12:03:14;;;;;;;11.12;7.90;;;;;;;;;;143743;569;46018;-60
2021/07/12 12:05:43;;;;;;;11.95;7.82;;;;;;;;;;143746;657;46013;-60
2021/07/12 12:08:16;;;;;;;21.08;7.85;;;;;;;;;;143743;619;46018;-59
2021/07/12 12:10:44;;;;;;;18.20;7.82;;;;;;;;;;143741;590;47010;-60
2021/07/12 12:13:19;;;;;;;19.48;7.80;;;;;;;;;;143743;616;46016;-58
2021/07/12 12:15:53;;;;;;;19.35;8.43;;;;;;;;;;143746;618;46012;-60
2021/07/12 12:18:24;;;;;;;15.05;7.07;;;;;;;;;;143742;595;46020;-58
2021/07/12 12:20:53;;;;;;;13.50;7.00;;;;;;;;;;143742;579;46023;-60
2021/07/12 12:23:28;;;;;;;14.60;7.45;;;;;;;;;;143740;619;46018;-60
2021/07/12 12:26:06;;;;;;;9.45;7.50;;;;;;;;;;143746;577;46022;-60
2021/07/12 12:28:48;;;;;;;13.15;7.87;;;;;;;;;;143744;578;46018;-60
2021/07/12 12:31:33;;;;;;;13.05;7.40;;;;;;;;;;143743;595;46010;-59
2021/07/12 12:34:18;;;;;;;13.10;7.40;;;;;;;;;;143741;576;46018;-59
2021/07/12 12:36:45;;;;;;;13.20;8.95;;;;;;;;;;143744;566;46012;-59
2021/07/12 12:39:20;;;;;;;14.18;8.40;;;;;;;;;;143742;563;46020;-59
2021/07/12 12:41:53;;;;;;;11.90;7.28;;;;;;;;;;143742;591;46022;-59
2021/07/12 12:44:22;;;;;;;9.97;6.47;;;;;;;;;;143743;628;46018;-60
2021/07/12 12:46:58;;;;;;;11.30;7.40;;;;;;;;;;143744;620;46012;-60
2021/07/12 12:49:34;;;;;;;15.57;7.57;;;;;;;;;;143746;564;46019;-59
2021/07/12 12:52:11;;;;;;;10.85;6.95;;;;;;;;;;143742;589;46010;-58
2021/07/12 12:54:43;;;;;;;15.68;7.07;;;;;;;;;;143743;592;46025;-59
2021/07/12 12:57:11;;;;;;;11.17;6.50;;;;;;;;;;143747;566;46022;-59
2021/07/12 12:59:46;;;;;;;10.75;6.75;;;;;;;;;;143744;566;46018;-59
2021/07/12 13:02:20;;;;;;;8.02;6.72;;;;;;;;;;143742;569;46010;-59
2021/07/12 13:04:55;;;;;;;10.90;7.05;;;;;;;;;;143743;578;46016;-59
2021/07/12 13:07:24;;;;;;;9.68;6.68;;;;;;;;;;143746;580;46022;-58
2021/07/12 13:10:10;;;;;;;11.57;6.80;;;;;;;;;;143746;595;46018;-60
2021/07/12 13:12:45;;;;;;;13.88;7.40;;;;;;;;;;143740;569;47011;-60
2021/07/12 13:15:21;;;;;;;10.50;6.93;;;;;;;;;;143741;607;46018;-59
2021/07/12 13:17:52;;;;;;;15.15;8.30;;;;;;;;;;143746;589;46013;-58
2021/07/12 13:20:24;;;;;;;10.77;6.87;;;;;;;;;;143744;628;46019;-60
2021/07/12 13:23:01;;;;;;;10.57;7.37;;;;;;;;;;143742;579;46022;-60
2021/07/12 13:25:40;;;;;;;9.93;7.43;;;;;;;;;;143744;571;46017;-60
2021/07/12 13:28:11;;;;;;;16.62;7.28;;;;;;;;;;143745;569;46012;-60
2021/07/12 13:30:40;;;;;;;11.00;7.15;;;;;;;;;;143744;571;46018;-60
2021/07/12 13:33:08;;;;;;;12.85;7.30;;;;;;;;;;143742;586;46022;-60
2021/07/12 13:35:36;;;;;;;11.80;7.37;;;;;;;;;;143744;618;46016;-60
2021/07/12 13:38:16;;;;;;;12.48;6.95;;;;;;;;;;143745;595;46010;-60
2021/07/12 13:40:43;;;;;;;15.35;7.55;;;;;;;;;;143744;566;46019;-59
2021/07/12 13:43:10;;;;;;;12.98;7.47;;;;;;;;;;143742;614;46010;-61
2021/07/12 13:45:38;;;;;;;11.27;6.85;;;;;;;;;;143743;575;46018;-61
2021/07/12 13:48:06;;;;;;;10.95;7.10;;;;;;;;;;143744;590;46013;-60
2021/07/12 13:50:34;;;;;;;8.18;6.70;;;;;;;;;;143742;598;46021;-61
2021/07/12 13:53:03;;;;;;;9.20;6.70;;;;;;;;;;143742;566;46022;-60
2021/07/12 13:55:32;;;;;;;10.10;6.55;;;;;;;;;;143743;583;46017;-60
2021/07/12 13:58:02;;;;;;;12.77;6.90;;;;;;;;;;143746;616;46012;-61
2021/07/12 14:00:31;;;;;;;14.57;7.47;;;;;;;;;;143743;608;46018;-61
2021/07/12 14:02:58;;;;;;;14.02;7.05;;;;;;;;;;143742;659;46022;-61
2021/07/12 14:05:25;;;;;;;11.50;6.97;;;;;;;;;;143744;611;46016;-61
2021/07/12 14:07:53;;;;;;;9.82;7.25;;;;;;;;;;143745;648;46012;-61
2021/07/12 14:10:21;;;;;;;9.05;6.93;;;;;;;;;;143745;566;46019;-61
2021/07/12 14:12:50;;;;;;;16.70;6.90;;;;;;;;;;143742;598;46023;-60
2021/07/12 14:15:20;;;;;;;9.50;6.87;;;;;;;;;;143744;564;46016;-61
2021/07/12 14:17:47;;;;;;;9.20;6.18;;;;;;;;;;143745;578;46013;-61
2021/07/12 14:20:15;;;;;;;9.35;7.05;;;;;;;;;;143744;595;46018;-61
2021/07/12 14:22:42;;;;;;;10.55;6.90;;;;;;;;;;143741;572;46022;-60
2021/07/12 14:25:10;;;;;;;8.85;7.18;;;;;;;;;;143745;551;46010;-61
2021/07/12 14:27:37;;;;;;;12.40;7.25;;;;;;;;;;143745;628;46012;-61
2021/07/12 14:30:05;;;;;;;10.93;6.72;;;;;;;;;;143744;572;46018;-61
2021/07/12 14:32:32;;;;;;;16.42;7.62;;;;;;;;;;143742;601;46010;-61
2021/07/12 14:34:59;;;;;;;9.15;6.85;;;;;;;;;;143744;665;46016;-61
2021/07/12 14:37:26;;;;;;;10.57;7.20;;;;;;;;;;143745;569;46010;-61
2021/07/12 14:39:53;;;;;;;9.05;6.85;;;;;;;;;;143739;607;47020;-61
2021/07/12 14:42:20;;;;;;;9.65;7.45;;;;;;;;;;143740;588;46010;-60
2021/07/12 14:44:47;;;;;;;10.13;6.65;;;;;;;;;;143741;591;46016;-60
2021/07/12 14:47:14;;;;;;;10.55;6.53;;;;;;;;;;143743;580;46012;-61
2021/07/12 14:49:41;;;;;;;11.23;6.97;;;;;;;;;;143741;571;46019;-61
2021/07/12 14:52:09;;;;;;;8.57;6.60;;;;;;;;;;143740;665;46010;-61